Decoded Metar for EHGR (GILZE-RIJEN in NETHERLANDS) (IATA:N/A) | Meteo·Mobile Aviation Weather
aviador You're here:

EHGR Decoded Metar

GILZE-RIJEN in NETHERLANDS
Report Time2019-07-23 03:25:00
UTC Time2019-07-23 03:37:18
Flight Rules vfr VFR
Wind170° at 01 kt
W.Decomp.*RWY 20: 0.9 kt HW 0.5 kt LCW
RWY 10: 0.3 kt HW 0.9 kt RCW
Visibility9999 m
Phenomena:N/A
Clouds:N/A
Expected CloudBase > 800 ft AGL from Temp-Dew spread
CeilingNone
Temp16°C (ISA +1)
Dew Point14°C (88% RH)
QNH1022 hPa
Density Alt82 ft
Elevation43 ft
Report Wrong Elevation
Raw Report
EHGR 230325Z AUTO 17001KT 9999 NCD 16/14 Q1022 BLU=

Extra information for EHGR:More info

Metar Taf Metar & Taf Last 4 Metars F.Rules Stats Wind Profile Meteogram Temp Stats Airport Information Weather charts Add Link Nearby VenuesMetar ALERT Operation Metar Decoded Social comments